createdAt,value
2022-07-27T00:00:08.276Z,69.00
2022-07-27T00:01:08.394Z,69.29
2022-07-27T00:02:08.268Z,69.39
2022-07-27T00:03:08.265Z,69.68
2022-07-27T00:04:08.321Z,70.94
2022-07-27T00:05:08.257Z,69.39
2022-07-27T00:06:08.249Z,70.26
2022-07-27T00:07:08.247Z,68.43
2022-07-27T00:08:08.241Z,67.55
2022-07-27T00:09:08.394Z,69.49
2022-07-27T00:10:08.233Z,68.13
2022-07-27T00:11:08.232Z,67.46
2022-07-27T00:12:08.224Z,67.75
2022-07-27T00:13:08.220Z,67.94
2022-07-27T00:14:08.214Z,67.97
2022-07-27T00:15:08.214Z,66.24
2022-07-27T00:16:08.294Z,65.72
2022-07-27T00:17:08.203Z,66.01
2022-07-27T00:18:08.199Z,65.82
2022-07-27T00:19:09.162Z,66.30
2022-07-27T00:20:08.190Z,66.49
2022-07-27T00:21:08.189Z,66.40
2022-07-27T00:22:08.180Z,67.27
2022-07-27T00:23:08.184Z,68.43
2022-07-27T00:24:08.176Z,68.43
2022-07-27T00:25:08.170Z,68.43
2022-07-27T00:26:08.165Z,69.32
2022-07-27T00:27:08.160Z,67.94
2022-07-27T00:28:08.158Z,67.27
2022-07-27T00:29:08.527Z,68.75
2022-07-27T00:30:08.146Z,68.71
2022-07-27T00:31:08.193Z,67.55
2022-07-27T00:32:12.520Z,68.91
2022-07-27T00:33:08.135Z,66.30
2022-07-27T00:34:08.127Z,67.55
2022-07-27T00:35:08.126Z,66.69
2022-07-27T00:36:08.117Z,68.71
2022-07-27T00:37:08.116Z,69.39
2022-07-27T00:38:08.112Z,70.94
2022-07-27T00:39:08.312Z,71.32
2022-07-27T00:40:08.101Z,70.06
2022-07-27T00:41:08.097Z,68.81
2022-07-27T00:42:08.094Z,70.36
2022-07-27T00:43:08.100Z,69.97
2022-07-27T00:44:08.085Z,70.26
2022-07-27T00:45:08.076Z,71.42
2022-07-27T00:46:08.074Z,70.26
2022-07-27T00:47:08.129Z,72.09
2022-07-27T00:48:08.067Z,71.42
2022-07-27T00:49:08.256Z,70.58
2022-07-27T00:50:08.057Z,72.03
2022-07-27T00:51:08.050Z,72.13
2022-07-27T00:52:08.048Z,69.13
2022-07-27T00:53:08.055Z,70.78
2022-07-27T00:54:08.037Z,68.84
2022-07-27T00:55:08.032Z,69.23
2022-07-27T00:56:08.035Z,68.65
2022-07-27T00:57:08.023Z,69.52
2022-07-27T00:58:08.020Z,68.17
2022-07-27T00:59:08.134Z,67.40
2022-07-27T01:00:08.012Z,70.48
2022-07-27T01:01:08.006Z,68.07
2022-07-27T01:02:12.134Z,67.78
2022-07-27T01:03:08.662Z,67.46
2022-07-27T01:04:07.994Z,68.23
2022-07-27T01:05:07.987Z,69.29
2022-07-27T01:06:07.984Z,70.06
2022-07-27T01:07:07.985Z,68.91
2022-07-27T01:08:07.977Z,68.91
2022-07-27T01:09:08.323Z,68.33
2022-07-27T01:10:07.967Z,68.13
2022-07-27T01:11:07.960Z,69.26
2022-07-27T01:12:07.958Z,69.26
2022-07-27T01:13:13.084Z,70.22
2022-07-27T01:14:07.951Z,71.38
2022-07-27T01:15:07.963Z,70.13
2022-07-27T01:16:08.035Z,72.83
2022-07-27T01:17:07.932Z,70.90
2022-07-27T01:18:07.936Z,70.80
2022-07-27T01:19:07.924Z,70.22
2022-07-27T01:20:07.925Z,70.70
2022-07-27T01:21:07.915Z,72.06
2022-07-27T01:22:07.914Z,71.28
2022-07-27T01:23:07.906Z,72.06
2022-07-27T01:24:07.905Z,71.86
2022-07-27T01:25:07.901Z,71.58
2022-07-27T01:26:07.896Z,71.00
2022-07-27T01:27:07.886Z,71.86
2022-07-27T01:28:07.884Z,72.73
2022-07-27T01:29:07.998Z,71.96
2022-07-27T01:30:07.874Z,71.67
2022-07-27T01:31:07.957Z,70.13
2022-07-27T01:32:07.867Z,70.80
2022-07-27T01:33:07.864Z,71.61
2022-07-27T01:34:07.856Z,70.51
2022-07-27T01:35:07.848Z,70.45
2022-07-27T01:36:07.846Z,71.22
2022-07-27T01:37:07.838Z,71.51
2022-07-27T01:38:07.836Z,71.42
2022-07-27T01:39:07.851Z,70.36
2022-07-27T01:40:07.827Z,72.96
2022-07-27T01:41:07.820Z,70.74
2022-07-27T01:42:07.816Z,72.58
2022-07-27T01:43:07.814Z,72.00
2022-07-27T01:44:07.809Z,71.51
2022-07-27T01:45:07.803Z,69.87
2022-07-27T01:46:07.827Z,70.90
2022-07-27T01:47:14.443Z,71.96
2022-07-27T01:48:07.793Z,71.09
2022-07-27T01:49:07.922Z,73.02
2022-07-27T01:50:07.900Z,73.50
2022-07-27T01:51:07.774Z,72.44
2022-07-27T01:52:07.773Z,73.21
2022-07-27T01:53:09.153Z,73.93
2022-07-27T01:54:07.762Z,71.77
2022-07-27T01:55:07.755Z,71.90
2022-07-27T01:56:07.853Z,71.90
2022-07-27T01:57:07.745Z,70.94
2022-07-27T01:58:07.743Z,72.96
2022-07-27T01:59:07.752Z,72.38
2022-07-27T02:00:07.735Z,70.84
2022-07-27T02:01:07.973Z,70.26
2022-07-27T02:02:07.754Z,72.77
2022-07-27T02:03:07.718Z,71.51
2022-07-27T02:04:07.715Z,73.63
2022-07-27T02:05:07.821Z,73.63
2022-07-27T02:06:07.704Z,69.78
2022-07-27T02:07:07.698Z,71.09
2022-07-27T02:08:07.703Z,72.58
2022-07-27T02:09:07.788Z,72.00
2022-07-27T02:10:07.686Z,72.48
2022-07-27T02:11:07.683Z,72.48
2022-07-27T02:12:07.677Z,72.67
2022-07-27T02:13:22.326Z,70.84
2022-07-27T02:14:07.666Z,71.90
2022-07-27T02:15:07.659Z,72.38
2022-07-27T02:16:09.634Z,70.54
2022-07-27T02:17:07.650Z,72.67
2022-07-27T02:18:18.833Z,72.19
2022-07-27T02:19:07.645Z,71.86
2022-07-27T02:20:07.642Z,72.00
2022-07-27T02:21:07.643Z,73.02
2022-07-27T02:22:07.630Z,73.73
2022-07-27T02:23:07.628Z,72.28
2022-07-27T02:24:07.619Z,72.34
2022-07-27T02:25:07.611Z,72.00
2022-07-27T02:26:07.609Z,72.48
2022-07-27T02:27:07.603Z,72.34
2022-07-27T02:28:07.601Z,73.83
2022-07-27T02:29:07.592Z,72.06
2022-07-27T02:30:07.589Z,73.02
2022-07-27T02:31:07.595Z,72.92
2022-07-27T02:32:07.581Z,72.92
2022-07-27T02:33:07.663Z,72.83
2022-07-27T02:34:07.572Z,72.15
2022-07-27T02:35:19.598Z,72.34
2022-07-27T02:36:07.563Z,72.92
2022-07-27T02:37:07.555Z,73.11
2022-07-27T02:38:07.559Z,73.02
2022-07-27T02:39:07.544Z,73.57
2022-07-27T02:40:07.543Z,74.62
2022-07-27T02:41:07.540Z,74.33
2022-07-27T02:42:07.535Z,74.52
2022-07-27T02:43:07.526Z,74.68
2022-07-27T02:44:07.533Z,75.40
2022-07-27T02:45:07.516Z,74.88
2022-07-27T02:46:07.615Z,74.88
2022-07-27T02:47:07.512Z,75.36
2022-07-27T02:48:08.426Z,75.55
2022-07-27T02:49:07.551Z,75.16
2022-07-27T02:50:07.493Z,75.55
2022-07-27T02:51:07.487Z,75.65
2022-07-27T02:52:07.486Z,75.84
2022-07-27T02:53:07.483Z,76.51
2022-07-27T02:54:07.473Z,76.13
2022-07-27T02:55:07.468Z,77.48
2022-07-27T02:56:07.461Z,76.90
2022-07-27T02:57:07.456Z,76.18
2022-07-27T02:58:07.450Z,76.67
2022-07-27T02:59:07.447Z,76.57
2022-07-27T03:00:07.446Z,77.73
2022-07-27T03:01:07.481Z,76.48
2022-07-27T03:02:07.633Z,76.48
2022-07-27T03:03:07.427Z,76.57
2022-07-27T03:04:07.441Z,77.63
2022-07-27T03:05:07.414Z,77.06
2022-07-27T03:06:07.418Z,77.63
2022-07-27T03:07:07.404Z,77.06
2022-07-27T03:08:07.400Z,77.34
2022-07-27T03:09:07.391Z,77.63
2022-07-27T03:10:07.388Z,77.73
2022-07-27T03:11:07.382Z,76.28
2022-07-27T03:12:07.380Z,76.38
2022-07-27T03:13:07.372Z,74.71
2022-07-27T03:14:07.367Z,75.13
2022-07-27T03:15:07.360Z,75.13
2022-07-27T03:16:07.399Z,76.06
2022-07-27T03:17:07.352Z,75.38
2022-07-27T03:18:07.346Z,75.48
2022-07-27T03:19:07.341Z,76.06
2022-07-27T03:20:08.882Z,76.92
2022-07-27T03:21:07.330Z,78.36
2022-07-27T03:22:07.321Z,76.34
2022-07-27T03:23:07.315Z,76.15
2022-07-27T03:24:07.312Z,76.15
2022-07-27T03:25:07.303Z,76.73
2022-07-27T03:26:07.300Z,76.15
2022-07-27T03:27:07.290Z,76.15
2022-07-27T03:28:07.288Z,77.21
2022-07-27T03:29:07.299Z,77.11
2022-07-27T03:30:07.280Z,78.75
2022-07-27T03:31:07.356Z,77.31
2022-07-27T03:32:07.263Z,77.21
2022-07-27T03:33:07.257Z,77.59
2022-07-27T03:34:07.250Z,78.08
2022-07-27T03:35:07.243Z,78.46
2022-07-27T03:36:07.238Z,78.71
2022-07-27T03:37:07.230Z,79.19
2022-07-27T03:38:07.229Z,79.86
2022-07-27T03:39:07.220Z,79.67
2022-07-27T03:40:07.215Z,79.48
2022-07-27T03:41:07.206Z,79.58
2022-07-27T03:42:07.204Z,79.58
2022-07-27T03:43:07.196Z,80.15
2022-07-27T03:44:07.191Z,80.54
2022-07-27T03:45:07.182Z,80.54
2022-07-27T03:46:07.265Z,80.44
2022-07-27T03:47:07.171Z,80.44
2022-07-27T03:48:07.167Z,81.12
2022-07-27T03:49:13.751Z,81.21
2022-07-27T03:50:07.159Z,80.73
2022-07-27T03:51:07.147Z,83.04
2022-07-27T03:52:07.145Z,81.70
2022-07-27T03:53:07.136Z,81.70
2022-07-27T03:54:07.130Z,81.50
2022-07-27T03:55:07.123Z,84.19
2022-07-27T03:56:07.118Z,82.08
2022-07-27T03:57:07.112Z,81.02
2022-07-27T03:58:07.107Z,80.44
2022-07-27T03:59:07.100Z,80.44
2022-07-27T04:00:07.096Z,81.02
2022-07-27T04:01:07.137Z,80.92
2022-07-27T04:02:07.129Z,80.54
2022-07-27T04:03:07.078Z,80.44
2022-07-27T04:04:07.072Z,81.30
2022-07-27T04:05:07.065Z,81.70
2022-07-27T04:06:07.060Z,80.92
2022-07-27T04:07:07.051Z,81.50
2022-07-27T04:08:07.050Z,80.15
2022-07-27T04:09:13.776Z,80.63
2022-07-27T04:10:07.037Z,79.77
2022-07-27T04:11:07.707Z,80.25
2022-07-27T04:12:07.025Z,81.02
2022-07-27T04:13:07.017Z,81.12
2022-07-27T04:14:07.014Z,81.88
2022-07-27T04:15:07.008Z,81.98
2022-07-27T04:16:07.001Z,81.79
2022-07-27T04:17:07.058Z,81.70
2022-07-27T04:18:06.990Z,81.21
2022-07-27T04:19:06.982Z,81.12
2022-07-27T04:20:06.980Z,81.30
2022-07-27T04:21:06.971Z,81.40
2022-07-27T04:22:06.968Z,81.60
2022-07-27T04:23:06.959Z,82.94
2022-07-27T04:24:06.957Z,82.08
2022-07-27T04:25:07.045Z,81.79
2022-07-27T04:26:06.943Z,81.70
2022-07-27T04:27:06.936Z,81.50
2022-07-27T04:28:06.932Z,81.79
2022-07-27T04:29:06.924Z,81.98
2022-07-27T04:30:09.510Z,81.30
2022-07-27T04:31:06.998Z,81.60
2022-07-27T04:32:06.908Z,81.30
2022-07-27T04:33:06.899Z,81.54
2022-07-27T04:34:06.895Z,81.70
2022-07-27T04:35:06.888Z,81.45
2022-07-27T04:36:06.900Z,80.44
2022-07-27T04:37:06.879Z,80.48
2022-07-27T04:38:06.873Z,80.48
2022-07-27T04:39:06.871Z,80.38
2022-07-27T04:40:06.863Z,80.38
2022-07-27T04:41:06.854Z,80.77
2022-07-27T04:42:06.851Z,81.06
2022-07-27T04:43:07.577Z,81.25
2022-07-27T04:44:06.840Z,81.93
2022-07-27T04:45:06.831Z,80.87
2022-07-27T04:46:10.555Z,80.29
2022-07-27T04:47:06.821Z,81.25
2022-07-27T04:48:06.819Z,81.06
2022-07-27T04:49:06.903Z,81.06
2022-07-27T04:50:06.804Z,80.87
2022-07-27T04:51:06.797Z,80.29
2022-07-27T04:52:06.794Z,79.94
2022-07-27T04:53:06.785Z,80.77
2022-07-27T04:54:06.780Z,80.71
2022-07-27T04:55:06.776Z,80.23
2022-07-27T04:56:06.771Z,80.04
2022-07-27T04:57:06.765Z,80.52
2022-07-27T04:58:06.758Z,80.62
2022-07-27T04:59:06.754Z,79.75
2022-07-27T05:00:06.751Z,80.91
2022-07-27T05:01:06.802Z,81.20
2022-07-27T05:02:06.737Z,80.91
2022-07-27T05:03:06.731Z,80.52
2022-07-27T05:04:06.776Z,80.43
2022-07-27T05:05:06.719Z,80.23
2022-07-27T05:06:06.713Z,80.43
2022-07-27T05:07:06.709Z,80.33
2022-07-27T05:08:06.701Z,80.52
2022-07-27T05:09:06.698Z,80.43
2022-07-27T05:10:06.690Z,80.52
2022-07-27T05:11:06.699Z,79.75
2022-07-27T05:12:06.687Z,79.94
2022-07-27T05:13:07.425Z,79.94
2022-07-27T05:14:06.673Z,79.66
2022-07-27T05:15:06.694Z,80.04
2022-07-27T05:16:06.722Z,79.56
2022-07-27T05:17:06.653Z,79.89
2022-07-27T05:18:06.649Z,79.02
2022-07-27T05:19:06.645Z,78.79
2022-07-27T05:20:06.634Z,78.83
2022-07-27T05:21:06.679Z,78.63
2022-07-27T05:22:06.625Z,78.63
2022-07-27T05:23:06.621Z,78.25
2022-07-27T05:24:06.615Z,78.63
2022-07-27T05:25:06.609Z,77.86
2022-07-27T05:26:06.605Z,76.71
2022-07-27T05:27:06.604Z,76.84
2022-07-27T05:28:06.594Z,77.19
2022-07-27T05:29:06.590Z,77.28
2022-07-27T05:30:06.583Z,78.19
2022-07-27T05:31:06.580Z,76.93
2022-07-27T05:32:06.688Z,77.03
2022-07-27T05:33:06.569Z,77.61
2022-07-27T05:34:06.565Z,78.67
2022-07-27T05:35:06.558Z,78.71
2022-07-27T05:36:07.836Z,76.65
2022-07-27T05:37:06.550Z,76.26
2022-07-27T05:38:06.542Z,75.20
2022-07-27T05:39:10.425Z,75.68
2022-07-27T05:40:06.534Z,75.30
2022-07-27T05:41:06.530Z,75.49
2022-07-27T05:42:06.522Z,75.88
2022-07-27T05:43:06.520Z,76.17
2022-07-27T05:44:06.512Z,74.82
2022-07-27T05:45:06.509Z,75.78
2022-07-27T05:46:06.666Z,75.40
2022-07-27T05:47:06.662Z,75.01
2022-07-27T05:48:06.493Z,74.33
2022-07-27T05:49:06.662Z,75.20
2022-07-27T05:50:06.481Z,76.55
2022-07-27T05:51:06.484Z,76.75
2022-07-27T05:52:06.473Z,76.65
2022-07-27T05:53:06.469Z,78.09
2022-07-27T05:54:06.463Z,78.09
2022-07-27T05:55:06.465Z,76.26
2022-07-27T05:56:06.452Z,76.65
2022-07-27T05:57:06.448Z,76.07
2022-07-27T05:58:06.443Z,75.97
2022-07-27T05:59:07.472Z,76.59
2022-07-27T06:00:06.466Z,76.26
2022-07-27T06:01:06.502Z,75.49
2022-07-27T06:02:06.423Z,76.98
2022-07-27T06:03:06.487Z,76.93
2022-07-27T06:04:06.416Z,77.33
2022-07-27T06:05:09.349Z,77.33
2022-07-27T06:06:06.403Z,76.36
2022-07-27T06:07:06.399Z,77.13
2022-07-27T06:08:06.393Z,77.33
2022-07-27T06:09:06.390Z,77.94
2022-07-27T06:10:06.388Z,76.78
2022-07-27T06:11:06.379Z,76.43
2022-07-27T06:12:06.373Z,75.47
2022-07-27T06:13:06.371Z,74.99
2022-07-27T06:14:06.363Z,75.67
2022-07-27T06:15:06.360Z,74.89
2022-07-27T06:16:06.376Z,75.57
2022-07-27T06:17:06.351Z,74.31
2022-07-27T06:18:06.345Z,74.99
2022-07-27T06:19:06.349Z,75.27
2022-07-27T06:20:06.337Z,75.89
2022-07-27T06:21:06.334Z,73.28
2022-07-27T06:22:06.323Z,73.77
2022-07-27T06:23:07.644Z,73.00
2022-07-27T06:24:06.316Z,73.96
2022-07-27T06:25:06.317Z,72.94
2022-07-27T06:26:06.307Z,72.55
2022-07-27T06:27:06.310Z,72.32
2022-07-27T06:28:06.306Z,72.58
2022-07-27T06:29:09.959Z,73.35
2022-07-27T06:30:06.289Z,73.77
2022-07-27T06:31:06.327Z,72.09
2022-07-27T06:32:06.345Z,73.38
2022-07-27T06:33:06.458Z,74.35
2022-07-27T06:34:10.855Z,73.00
2022-07-27T06:35:06.274Z,73.00
2022-07-27T06:36:06.264Z,72.32
2022-07-27T06:37:06.276Z,73.77
2022-07-27T06:38:06.255Z,73.96
2022-07-27T06:39:06.254Z,72.94
2022-07-27T06:40:06.247Z,72.84
2022-07-27T06:41:06.244Z,71.48
2022-07-27T06:42:06.239Z,70.42
2022-07-27T06:43:06.237Z,72.36
2022-07-27T06:44:06.230Z,73.03
2022-07-27T06:45:06.236Z,71.68
2022-07-27T06:46:06.220Z,71.45
2022-07-27T06:47:06.263Z,72.36
2022-07-27T06:48:06.214Z,72.84
2022-07-27T06:49:06.275Z,71.20
2022-07-27T06:50:06.206Z,70.23
2022-07-27T06:51:06.204Z,71.14
2022-07-27T06:52:06.198Z,70.26
2022-07-27T06:53:06.195Z,71.17
2022-07-27T06:54:06.189Z,70.30
2022-07-27T06:55:06.188Z,69.43
2022-07-27T06:56:06.181Z,68.98
2022-07-27T06:57:06.179Z,68.69
2022-07-27T06:58:06.174Z,67.72
2022-07-27T06:59:06.173Z,65.40
2022-07-27T07:00:06.175Z,65.43
2022-07-27T07:01:06.258Z,65.59
2022-07-27T07:02:06.161Z,67.63
2022-07-27T07:03:06.160Z,66.43
2022-07-27T07:04:06.202Z,68.95
2022-07-27T07:05:06.150Z,70.17
2022-07-27T07:06:06.146Z,69.98
2022-07-27T07:07:07.406Z,71.72
2022-07-27T07:08:06.142Z,69.17
2022-07-27T07:09:06.138Z,68.59
2022-07-27T07:10:06.131Z,69.17
2022-07-27T07:11:06.131Z,70.81
2022-07-27T07:12:06.126Z,70.78
2022-07-27T07:13:06.125Z,70.39
2022-07-27T07:14:06.119Z,70.29
2022-07-27T07:15:06.119Z,71.90
2022-07-27T07:16:06.187Z,72.48
2022-07-27T07:17:06.109Z,72.42
2022-07-27T07:18:06.102Z,72.32
2022-07-27T07:19:06.106Z,72.22
2022-07-27T07:20:06.097Z,70.81
2022-07-27T07:21:06.094Z,72.64
2022-07-27T07:22:06.089Z,72.55
2022-07-27T07:23:06.088Z,70.32
2022-07-27T07:24:06.081Z,69.26
2022-07-27T07:25:06.079Z,69.40
2022-07-27T07:26:06.073Z,69.30
2022-07-27T07:27:06.072Z,68.91
2022-07-27T07:28:06.071Z,68.52
2022-07-27T07:29:06.063Z,68.33
2022-07-27T07:30:06.057Z,69.10
2022-07-27T07:31:06.133Z,68.43
2022-07-27T07:32:06.053Z,69.17
2022-07-27T07:33:06.052Z,69.94
2022-07-27T07:34:06.062Z,70.20
2022-07-27T07:35:06.042Z,70.78
2022-07-27T07:36:12.199Z,70.58
2022-07-27T07:37:06.034Z,70.29
2022-07-27T07:38:06.030Z,70.78
2022-07-27T07:39:06.028Z,70.97
2022-07-27T07:40:39.927Z,70.78
2022-07-27T07:41:06.018Z,71.06
2022-07-27T07:42:06.013Z,72.55
2022-07-27T07:43:06.012Z,71.10
2022-07-27T07:44:06.006Z,71.30
2022-07-27T07:45:06.002Z,71.78
2022-07-27T07:46:06.136Z,68.98
2022-07-27T07:47:06.092Z,69.01
2022-07-27T07:48:05.990Z,70.07
2022-07-27T07:49:06.055Z,70.07
2022-07-27T07:50:05.981Z,71.04
2022-07-27T07:51:05.985Z,69.01
2022-07-27T07:52:05.977Z,69.04
2022-07-27T07:53:05.972Z,68.56
2022-07-27T07:54:05.970Z,68.27
2022-07-27T07:55:05.967Z,69.24
2022-07-27T07:56:05.963Z,68.85
2022-07-27T07:57:05.960Z,68.66
2022-07-27T07:58:05.953Z,68.17
2022-07-27T07:59:05.953Z,68.46
2022-07-27T08:00:05.947Z,69.08
2022-07-27T08:01:05.950Z,68.59
2022-07-27T08:02:05.999Z,67.33
2022-07-27T08:04:05.934Z,67.05
2022-07-27T08:05:05.927Z,66.85
2022-07-27T08:06:05.927Z,66.37
2022-07-27T08:07:05.924Z,67.05
2022-07-27T08:08:05.926Z,66.37
2022-07-27T08:09:05.914Z,67.24
2022-07-27T08:10:05.913Z,66.30
2022-07-27T08:11:05.911Z,66.98
2022-07-27T08:12:05.909Z,66.37
2022-07-27T08:13:06.000Z,66.69
2022-07-27T08:14:05.899Z,65.82
2022-07-27T08:15:05.894Z,66.20
2022-07-27T08:16:06.013Z,66.40
2022-07-27T08:17:05.888Z,66.05
2022-07-27T08:18:05.982Z,65.66
2022-07-27T08:19:05.882Z,65.85
2022-07-27T08:20:05.881Z,65.66
2022-07-27T08:21:05.876Z,64.20
2022-07-27T08:22:05.874Z,63.82
2022-07-27T08:23:05.869Z,63.82
2022-07-27T08:24:05.872Z,64.43
2022-07-27T08:25:05.863Z,63.95
2022-07-27T08:26:08.122Z,63.95
2022-07-27T08:27:05.858Z,62.82
2022-07-27T08:28:05.858Z,63.20
2022-07-27T08:29:09.047Z,63.69
2022-07-27T08:30:05.854Z,63.59
2022-07-27T08:31:13.945Z,61.75
2022-07-27T08:32:06.028Z,61.68
2022-07-27T08:33:05.841Z,61.88
2022-07-27T08:34:05.945Z,61.19
2022-07-27T08:35:05.837Z,61.29
2022-07-27T08:36:05.839Z,61.29
2022-07-27T08:37:05.835Z,61.52
2022-07-27T08:38:05.855Z,60.55
2022-07-27T08:39:05.829Z,62.71
2022-07-27T08:40:38.687Z,61.55
2022-07-27T08:41:05.825Z,60.87
2022-07-27T08:42:05.825Z,59.92
2022-07-27T08:43:05.832Z,59.64
2022-07-27T08:44:05.822Z,59.38
2022-07-27T08:45:05.819Z,59.08
2022-07-27T08:46:05.924Z,57.33
2022-07-27T08:47:05.883Z,57.14
2022-07-27T08:48:05.823Z,56.46
2022-07-27T08:49:05.851Z,56.62
2022-07-27T08:50:05.812Z,56.52
2022-07-27T08:51:05.810Z,57.01
2022-07-27T08:52:05.810Z,58.50
2022-07-27T08:53:06.037Z,57.98
2022-07-27T08:54:05.808Z,57.04
2022-07-27T08:55:05.803Z,56.26
2022-07-27T08:56:05.810Z,56.65
2022-07-27T08:57:05.800Z,56.07
2022-07-27T08:58:05.817Z,55.68
2022-07-27T08:59:05.798Z,56.72
2022-07-27T09:00:05.801Z,57.31
2022-07-27T09:01:05.797Z,56.52
2022-07-27T09:02:05.842Z,55.75
2022-07-27T09:03:05.896Z,57.21
2022-07-27T09:04:05.797Z,57.11
2022-07-27T09:05:05.790Z,57.31
2022-07-27T09:06:05.794Z,56.14
2022-07-27T09:07:05.790Z,56.52
2022-07-27T09:08:05.792Z,57.60
2022-07-27T09:09:05.787Z,57.60
2022-07-27T09:10:05.791Z,56.52
2022-07-27T09:11:05.789Z,57.40
2022-07-27T09:12:05.788Z,57.21
2022-07-27T09:13:05.786Z,57.31
2022-07-27T09:14:05.782Z,56.92
2022-07-27T09:15:05.790Z,57.21
2022-07-27T09:16:18.138Z,57.31
2022-07-27T09:18:05.823Z,56.52
2022-07-27T09:19:05.784Z,56.60
2022-07-27T09:20:05.780Z,56.50
2022-07-27T09:21:05.777Z,56.98
2022-07-27T09:22:05.778Z,56.79
2022-07-27T09:23:05.776Z,57.86
2022-07-27T09:24:13.162Z,57.69
2022-07-27T09:25:05.774Z,57.69
2022-07-27T09:26:15.570Z,57.89
2022-07-27T09:27:06.088Z,58.40
2022-07-27T09:28:05.768Z,57.14
2022-07-27T09:29:05.775Z,56.68
2022-07-27T09:30:05.769Z,55.80
2022-07-27T09:31:05.847Z,56.41
2022-07-27T09:32:05.766Z,54.89
2022-07-27T09:33:05.766Z,54.79
2022-07-27T09:34:05.765Z,54.40
2022-07-27T09:35:05.765Z,53.81
2022-07-27T09:36:05.764Z,52.97
2022-07-27T09:37:06.152Z,52.87
2022-07-27T09:38:05.761Z,53.16
2022-07-27T09:39:05.807Z,54.62
2022-07-27T09:40:05.764Z,52.58
2022-07-27T09:41:05.764Z,53.09
2022-07-27T09:42:06.119Z,52.50
2022-07-27T09:43:28.116Z,51.92
2022-07-27T09:44:30.769Z,52.87
2022-07-27T09:45:05.767Z,51.99
2022-07-27T09:46:05.839Z,51.61
2022-07-27T09:47:05.762Z,51.41
2022-07-27T09:48:05.762Z,52.09
2022-07-27T09:49:05.837Z,52.28
2022-07-27T09:50:05.762Z,51.99
2022-07-27T09:51:43.456Z,52.19
2022-07-27T09:52:05.767Z,51.80
2022-07-27T09:53:25.604Z,52.16
2022-07-27T09:54:05.761Z,51.39
2022-07-27T09:55:05.765Z,52.06
2022-07-27T09:56:05.768Z,51.67
2022-07-27T09:57:05.765Z,53.16
2022-07-27T09:58:05.763Z,51.31
2022-07-27T09:59:05.781Z,51.99
2022-07-27T10:00:05.763Z,52.22
2022-07-27T10:01:05.767Z,51.14
2022-07-27T10:02:05.853Z,51.73
2022-07-27T10:03:05.764Z,51.85
2022-07-27T10:04:05.816Z,52.26
2022-07-27T10:05:05.851Z,50.31
2022-07-27T10:06:05.773Z,49.24
2022-07-27T10:07:10.637Z,48.75
2022-07-27T10:08:05.766Z,48.93
2022-07-27T10:09:05.768Z,48.85
2022-07-27T10:10:05.778Z,48.75
2022-07-27T10:11:05.770Z,48.83
2022-07-27T10:12:05.770Z,50.38
2022-07-27T10:13:05.771Z,51.26
2022-07-27T10:14:05.818Z,51.17
2022-07-27T10:15:05.772Z,51.56
2022-07-27T10:16:05.879Z,50.48
2022-07-27T10:17:05.772Z,50.38
2022-07-27T10:18:07.384Z,49.32
2022-07-27T10:19:08.110Z,48.54
2022-07-27T10:20:05.783Z,49.29
2022-07-27T10:21:05.775Z,48.90
2022-07-27T10:22:05.774Z,50.04
2022-07-27T10:23:06.678Z,49.95
2022-07-27T10:24:05.777Z,49.29
2022-07-27T10:25:05.779Z,49.39
2022-07-27T10:26:05.777Z,50.09
2022-07-27T10:27:05.789Z,49.51
2022-07-27T10:28:05.779Z,48.73
2022-07-27T10:29:05.782Z,48.85
2022-07-27T10:30:05.780Z,47.88
2022-07-27T10:31:05.830Z,48.00
2022-07-27T10:32:05.782Z,47.90
2022-07-27T10:33:05.786Z,47.34
2022-07-27T10:34:05.784Z,47.53
2022-07-27T10:35:05.792Z,47.36
2022-07-27T10:36:05.786Z,46.78
2022-07-27T10:37:05.792Z,46.29
2022-07-27T10:38:05.789Z,46.80
2022-07-27T10:39:05.792Z,45.72
2022-07-27T10:40:05.792Z,45.26
2022-07-27T10:41:05.793Z,45.53
2022-07-27T10:42:05.794Z,45.53
2022-07-27T10:43:05.803Z,46.80
2022-07-27T10:44:05.810Z,46.60
2022-07-27T10:45:05.801Z,47.17
2022-07-27T10:46:05.861Z,49.22
2022-07-27T10:47:05.806Z,47.56
2022-07-27T10:48:05.803Z,48.83
2022-07-27T10:49:05.892Z,49.51
2022-07-27T10:50:05.806Z,48.02
2022-07-27T10:51:05.809Z,48.80
2022-07-27T10:52:05.811Z,48.00
2022-07-27T10:53:05.817Z,50.43
2022-07-27T10:54:12.949Z,50.34
2022-07-27T10:55:05.820Z,51.45
2022-07-27T10:56:05.817Z,52.59
2022-07-27T10:57:05.831Z,53.45
2022-07-27T10:58:05.818Z,54.52
2022-07-27T10:59:05.821Z,54.90
2022-07-27T11:00:09.405Z,57.04
2022-07-27T11:01:05.850Z,55.80
2022-07-27T11:02:05.821Z,53.28
2022-07-27T11:03:05.825Z,54.28
2022-07-27T11:04:05.850Z,55.25
2022-07-27T11:05:05.825Z,53.59
2022-07-27T11:06:36.317Z,52.94
2022-07-27T11:07:24.790Z,54.40
2022-07-27T11:08:35.661Z,54.40
2022-07-27T11:10:05.924Z,53.45
2022-07-27T11:11:05.837Z,53.16
2022-07-27T11:12:05.840Z,53.45
2022-07-27T11:13:05.830Z,53.26
2022-07-27T11:14:05.832Z,52.97
2022-07-27T11:15:05.831Z,52.22
2022-07-27T11:18:05.924Z,51.29
2022-07-27T11:19:05.865Z,53.42
2022-07-27T11:20:05.831Z,55.08
2022-07-27T11:21:05.835Z,55.11
2022-07-27T11:22:12.842Z,53.16
2022-07-27T11:24:05.833Z,51.63
2022-07-27T11:25:05.836Z,51.75
2022-07-27T11:26:05.835Z,50.97
2022-07-27T11:27:17.727Z,51.75
2022-07-27T11:28:05.843Z,51.87
2022-07-27T11:29:05.838Z,51.78
2022-07-27T11:30:05.835Z,51.19
2022-07-27T11:31:05.886Z,51.19
2022-07-27T11:32:05.897Z,50.80
2022-07-27T11:33:05.841Z,50.51
2022-07-27T11:34:05.839Z,50.92
2022-07-27T11:35:10.725Z,49.56
2022-07-27T11:36:05.840Z,49.02
2022-07-27T11:37:05.842Z,50.58
2022-07-27T11:38:05.850Z,50.09
2022-07-27T11:39:05.844Z,50.87
2022-07-27T11:40:37.014Z,51.36
2022-07-27T11:41:17.030Z,52.66
2022-07-27T11:42:08.494Z,50.99
2022-07-27T11:43:05.848Z,49.93
2022-07-27T11:44:05.864Z,49.05
2022-07-27T11:45:05.850Z,49.93
2022-07-27T11:46:05.915Z,50.60
2022-07-27T11:47:05.854Z,50.60
2022-07-27T11:48:05.852Z,51.17
2022-07-27T11:49:07.574Z,50.68
2022-07-27T11:50:05.913Z,49.51
2022-07-27T11:51:05.855Z,51.04
2022-07-27T11:52:05.867Z,52.50
2022-07-27T11:53:05.857Z,52.31
2022-07-27T11:54:05.854Z,52.04
2022-07-27T11:55:05.861Z,50.97
2022-07-27T11:56:05.857Z,51.97
2022-07-27T11:57:05.960Z,50.60
2022-07-27T11:58:05.861Z,49.05
2022-07-27T11:59:05.861Z,51.19
2022-07-27T12:00:05.938Z,52.46
2022-07-27T12:01:05.861Z,50.80
2022-07-27T12:02:05.908Z,50.60
2022-07-27T12:03:05.866Z,51.29
2022-07-27T12:04:05.864Z,49.95
2022-07-27T12:05:05.911Z,48.97
2022-07-27T12:06:05.867Z,49.46
2022-07-27T12:07:05.885Z,48.97
2022-07-27T12:08:05.868Z,48.10
2022-07-27T12:09:05.872Z,47.90
2022-07-27T12:10:05.907Z,48.58
2022-07-27T12:11:05.871Z,48.97
2022-07-27T12:12:05.872Z,47.63
2022-07-27T12:13:05.874Z,47.63
2022-07-27T12:14:05.874Z,48.02
2022-07-27T12:16:05.880Z,48.41
2022-07-27T12:17:05.989Z,47.83
2022-07-27T12:18:05.888Z,48.02
2022-07-27T12:19:05.928Z,47.07
2022-07-27T12:21:05.883Z,46.75
2022-07-27T12:22:05.882Z,46.56
2022-07-27T12:23:05.895Z,46.85
2022-07-27T12:24:05.884Z,46.29
2022-07-27T12:25:10.007Z,46.39
2022-07-27T12:26:05.888Z,46.29
2022-07-27T12:27:06.767Z,45.90
2022-07-27T12:28:05.905Z,45.72
2022-07-27T12:29:05.894Z,46.31
2022-07-27T12:30:05.985Z,45.82
2022-07-27T12:31:06.022Z,45.82
2022-07-27T12:32:05.899Z,45.92
2022-07-27T12:33:05.899Z,46.29
2022-07-27T12:34:06.721Z,46.39
2022-07-27T12:35:05.903Z,46.78
2022-07-27T12:36:05.904Z,46.29
2022-07-27T12:37:05.906Z,47.36
2022-07-27T12:38:05.905Z,46.97
2022-07-27T12:39:05.913Z,47.36
2022-07-27T12:40:05.912Z,47.85
2022-07-27T12:41:05.912Z,47.75
2022-07-27T12:42:05.914Z,48.34
2022-07-27T12:43:05.916Z,46.48
2022-07-27T12:44:05.916Z,47.27
2022-07-27T12:45:05.920Z,48.83
2022-07-27T12:46:05.996Z,48.63
2022-07-27T12:47:05.921Z,48.44
2022-07-27T12:48:05.923Z,47.22
2022-07-27T12:49:05.994Z,47.00
2022-07-27T12:50:05.926Z,48.73
2022-07-27T12:52:05.929Z,47.88
2022-07-27T12:53:05.929Z,47.88
2022-07-27T12:54:05.932Z,47.39
2022-07-27T12:55:05.932Z,47.12
2022-07-27T12:56:05.937Z,46.92
2022-07-27T12:57:05.940Z,47.09
2022-07-27T12:58:05.936Z,47.49
2022-07-27T12:59:05.937Z,47.95
2022-07-27T13:00:05.959Z,48.34
2022-07-27T13:01:06.106Z,48.73